Time;durP1;ratioP1;P1;durP2;ratioP2;P2;SDS_P1;SDS_P2;PMS_P1;PMS_P2;Temp;Humidity;BMP_temperature;BMP_pressure;BME280_temperature;BME280_humidity;BME280_pressure;Samples;Min_cycle;Max_cycle;Signal;HPM_P1;HPM_P2
2022/10/10 00:02:02;;;;;;;;;26.20;23.80;;;;;12.21;56.82;99782.34;6186166;28;100142;-72
2022/10/10 00:05:06;;;;;;;;;25.00;25.00;;;;;12.21;57.02;99782.34;6220257;27;96325;-71
2022/10/10 00:08:09;;;;;;;;;25.60;23.00;;;;;12.19;57.05;99784.44;6137416;28;96446;-72
2022/10/10 00:11:17;;;;;;;;;26.60;24.00;;;;;12.13;57.06;99783.41;6203490;28;98574;-72
2022/10/10 00:14:21;;;;;;;;;28.75;22.75;;;;;12.05;57.08;99783.63;6137004;28;96390;-72
2022/10/10 00:17:24;;;;;;;;;25.25;22.00;;;;;12.02;57.26;99774.03;6136917;28;96430;-71
2022/10/10 00:20:27;;;;;;;;;26.00;23.00;;;;;12.01;57.00;99768.88;6203257;28;96966;-71
2022/10/10 00:23:31;;;;;;;;;24.60;23.60;;;;;12.00;56.70;99769.91;6136386;28;97210;-72
2022/10/10 00:26:35;;;;;;;;;23.00;21.00;;;;;11.93;57.10;99753.69;6136919;28;96336;-72
2022/10/10 00:29:39;;;;;;;;;25.40;23.00;;;;;11.93;56.81;99763.66;6136663;28;96960;-72
2022/10/10 00:32:42;;;;;;;;;24.00;24.00;;;;;11.60;57.45;99725.81;6203286;28;96458;-72
2022/10/10 00:35:45;;;;;;;;;27.60;25.60;;;;;11.75;57.17;99747.25;6135135;28;96877;-72
2022/10/10 00:38:49;;;;;;;;;28.80;25.80;;;;;11.67;57.58;99745.56;6136262;28;96224;-72
2022/10/10 00:41:54;;;;;;;;;24.00;23.00;;;;;11.56;58.33;99740.78;6204114;27;96582;-73
2022/10/10 00:45:27;;;;;;;;;25.60;23.20;;;;;11.46;58.07;99738.50;6202403;28;98583;-70
2022/10/10 00:48:35;;;;;;;;;25.00;23.60;;;;;11.39;58.30;99734.94;6192829;28;98359;-72
2022/10/10 00:51:38;;;;;;;;;25.75;23.00;;;;;11.39;58.65;99737.66;6185734;28;96804;-72
2022/10/10 00:54:42;;;;;;;;;25.75;23.75;;;;;11.36;58.53;99739.94;6202056;27;96734;-72
2022/10/10 00:57:47;;;;;;;;;23.00;22.60;;;;;11.26;58.99;99743.88;6136433;28;96314;-73
2022/10/10 01:00:52;;;;;;;;;24.75;23.25;;;;;11.11;59.17;99729.72;6203635;28;96230;-72
2022/10/10 01:03:57;;;;;;;;;31.40;27.40;;;;;11.19;59.81;99723.31;6135952;28;96435;-72
2022/10/10 01:07:03;;;;;;;;;27.00;24.00;;;;;11.18;59.46;99733.28;6203493;27;96748;-72
2022/10/10 01:10:12;;;;;;;;;31.00;25.50;;;;;11.17;59.78;99728.06;6136415;28;96261;-72
2022/10/10 01:13:28;;;;;;;;;24.00;22.00;;;;;11.01;59.76;99723.06;6135901;28;97790;-72
2022/10/10 01:16:42;;;;;;;;;28.00;23.60;;;;;11.01;59.47;99717.66;6136245;28;96543;-71
2022/10/10 01:20:10;;;;;;;;;28.00;25.40;;;;;11.07;59.73;99724.94;6186450;28;98559;-71
2022/10/10 01:23:54;;;;;;;;;32.00;27.00;;;;;10.89;59.34;99689.63;6136069;28;96219;-71
2022/10/10 01:27:13;;;;;;;;;30.50;26.25;;;;;11.06;59.37;99734.91;6124466;28;96693;-71
2022/10/10 01:30:21;;;;;;;;;27.25;25.25;;;;;11.01;59.22;99715.78;6135352;28;96435;-71
2022/10/10 01:33:32;;;;;;;;;28.80;25.80;;;;;10.95;59.46;99726.56;6202829;27;96420;-72
2022/10/10 01:36:43;;;;;;;;;25.00;23.20;;;;;10.85;59.99;99726.94;6194756;27;96705;-71
2022/10/10 01:39:56;;;;;;;;;29.60;27.00;;;;;10.75;60.19;99710.34;6203975;28;96595;-72
2022/10/10 01:43:02;;;;;;;;;27.00;25.60;;;;;10.75;59.78;99718.44;6216952;27;96594;-69
2022/10/10 01:46:12;;;;;;;;;31.20;28.80;;;;;10.74;59.88;99714.06;6136179;28;97427;-72
2022/10/10 01:49:16;;;;;;;;;31.80;26.40;;;;;10.76;59.94;99715.53;6136078;28;96334;-71
2022/10/10 01:52:32;;;;;;;;;28.00;25.80;;;;;10.79;59.90;99700.81;6135225;28;96312;-71
2022/10/10 01:55:54;;;;;;;;;27.40;26.00;;;;;10.81;59.74;99699.56;6200797;28;96707;-72
2022/10/10 01:59:15;;;;;;;;;25.00;23.67;;;;;10.73;60.60;99697.06;6150237;27;96224;-71
2022/10/10 02:02:29;;;;;;;;;28.25;25.00;;;;;10.79;59.81;99703.50;6139362;27;96253;-71
2022/10/10 02:05:43;;;;;;;;;29.60;27.20;;;;;10.70;60.03;99700.13;6135642;28;96412;-72
2022/10/10 02:08:52;;;;;;;;;26.80;24.00;;;;;10.66;59.74;99687.25;6185922;28;98479;-72
2022/10/10 02:11:58;;;;;;;;;27.50;25.00;;;;;10.77;59.72;99697.47;6135580;28;96325;-72
2022/10/10 02:15:09;;;;;;;;;22.60;21.60;;;;;10.81;58.82;99690.63;6134258;28;96218;-71
2022/10/10 02:18:16;;;;;;;;;28.40;25.00;;;;;10.83;59.28;99685.88;6135402;28;96235;-71
2022/10/10 02:21:20;;;;;;;;;26.60;24.00;;;;;10.81;59.73;99693.31;6218081;27;96234;-72
2022/10/10 02:24:25;;;;;;;;;23.00;22.00;;;;;10.68;59.71;99677.13;6134835;28;96321;-71
2022/10/10 02:27:36;;;;;;;;;28.60;25.60;;;;;10.75;59.32;99684.19;6135053;28;96213;-71
2022/10/10 02:30:44;;;;;;;;;26.40;24.00;;;;;10.73;59.67;99683.56;6134246;28;97279;-71
2022/10/10 02:34:09;;;;;;;;;24.75;22.75;;;;;10.67;60.20;99670.06;6130667;28;96189;-72
2022/10/10 02:37:14;;;;;;;;;28.40;23.60;;;;;10.60;59.45;99653.88;6188922;28;98527;-72
2022/10/10 02:40:22;;;;;;;;;27.00;24.60;;;;;10.75;59.51;99678.78;6134678;28;96328;-72
2022/10/10 02:43:25;;;;;;;;;25.40;22.00;;;;;10.69;59.66;99678.78;6201480;28;98391;-72
2022/10/10 02:46:29;;;;;;;;;22.20;21.00;;;;;10.64;59.83;99676.69;6134523;28;97163;-71
2022/10/10 02:49:35;;;;;;;;;21.00;20.00;;;;;10.64;59.75;99678.56;6144377;27;96923;-71
2022/10/10 02:52:39;;;;;;;;;24.40;22.00;;;;;10.63;59.69;99668.81;6132025;28;96465;-72
2022/10/10 02:55:42;;;;;;;;;24.25;22.25;;;;;10.62;59.41;99675.22;6140871;27;97480;-72
2022/10/10 02:58:45;;;;;;;;;22.60;21.00;;;;;10.61;59.26;99669.00;6206715;27;96185;-72
2022/10/10 03:01:49;;;;;;;;;28.00;25.20;;;;;10.61;59.07;99673.56;6197988;27;97091;-69
2022/10/10 03:04:53;;;;;;;;;25.00;22.00;;;;;10.60;59.05;99664.66;6195423;28;96490;-69
2022/10/10 03:07:57;;;;;;;;;24.00;21.50;;;;;10.55;58.84;99661.75;6208212;27;96232;-71
2022/10/10 03:11:01;;;;;;;;;26.00;24.40;;;;;10.59;58.89;99663.00;6195442;28;96659;-71
2022/10/10 03:14:05;;;;;;;;;23.80;21.00;;;;;10.58;58.51;99663.19;6130070;28;96864;-71
2022/10/10 03:17:08;;;;;;;;;24.75;22.75;;;;;10.57;58.35;99656.13;6132770;27;97320;-70
2022/10/10 03:20:13;;;;;;;;;24.00;22.00;;;;;10.55;58.14;99655.50;6132956;28;96097;-70
2022/10/10 03:23:16;;;;;;;;;21.50;19.00;;;;;10.52;57.82;99648.66;6195456;27;96904;-70
2022/10/10 03:26:20;;;;;;;;;22.00;20.60;;;;;10.46;57.91;99651.34;6197497;28;96632;-71
2022/10/10 03:29:23;;;;;;;;;23.40;22.40;;;;;10.30;58.01;99633.66;6202476;27;96891;-70
2022/10/10 03:32:27;;;;;;;;;24.00;22.00;;;;;10.37;58.37;99648.81;6136670;27;96305;-70
2022/10/10 03:35:32;;;;;;;;;29.20;22.60;;;;;10.36;58.34;99646.34;6133358;28;96398;-70
2022/10/10 03:38:35;;;;;;;;;23.25;21.00;;;;;10.35;58.83;99645.50;6199528;27;98400;-70
2022/10/10 03:41:38;;;;;;;;;23.00;21.00;;;;;10.36;58.85;99640.94;6136456;27;96272;-70
2022/10/10 03:44:41;;;;;;;;;20.60;19.20;;;;;10.40;59.06;99636.81;6201332;27;98278;-72
2022/10/10 03:47:45;;;;;;;;;24.40;22.80;;;;;10.38;58.85;99636.16;6136186;27;96875;-72
2022/10/10 03:50:50;;;;;;;;;20.00;18.50;;;;;10.22;58.80;99613.09;6203659;28;96310;-72
2022/10/10 03:53:54;;;;;;;;;18.40;17.40;;;;;10.33;58.80;99630.53;6136779;28;97054;-71
2022/10/10 03:56:58;;;;;;;;;23.20;20.20;;;;;10.29;58.94;99629.28;6220296;27;96381;-70
2022/10/10 04:00:01;;;;;;;;;21.00;19.00;;;;;10.31;58.85;99622.66;6203108;28;96262;-71
2022/10/10 04:03:08;;;;;;;;;21.00;19.00;;;;;10.25;58.41;99623.47;6134424;28;96268;-71
2022/10/10 04:06:13;;;;;;;;;21.25;18.25;;;;;10.00;58.68;99617.75;6136204;28;96248;-73
2022/10/10 04:09:16;;;;;;;;;21.20;19.80;;;;;9.99;58.83;99620.63;6203225;27;96849;-72
2022/10/10 04:12:20;;;;;;;;;22.50;21.75;;;;;9.99;58.58;99628.72;6202245;28;96660;-68
2022/10/10 04:15:24;;;;;;;;;22.00;20.25;;;;;9.88;58.57;99626.56;6201123;27;96506;-72
2022/10/10 04:18:27;;;;;;;;;19.60;18.00;;;;;9.83;58.77;99624.47;6193332;27;98234;-73
2022/10/10 04:21:32;;;;;;;;;20.40;18.40;;;;;9.83;58.64;99632.56;6148935;27;96194;-71
2022/10/10 04:24:35;;;;;;;;;22.00;20.75;;;;;9.70;58.67;99619.03;6196616;27;98419;-73
2022/10/10 04:27:39;;;;;;;;;21.00;20.00;;;;;9.69;58.66;99633.50;6136346;28;96636;-72
2022/10/10 04:30:43;;;;;;;;;22.50;20.50;;;;;9.55;59.02;99613.75;6135870;28;96461;-70
2022/10/10 04:33:46;;;;;;;;;24.50;22.00;;;;;9.64;59.22;99619.81;6201378;28;98417;-70
2022/10/10 04:36:51;;;;;;;;;21.00;19.00;;;;;9.55;59.22;99637.16;6200414;28;96679;-72
2022/10/10 04:39:54;;;;;;;;;20.60;20.00;;;;;9.49;59.40;99627.16;6212844;27;96419;-70
2022/10/10 04:42:57;;;;;;;;;21.00;19.67;;;;;9.52;59.33;99626.78;6212209;27;96722;-71
2022/10/10 04:46:01;;;;;;;;;21.80;19.40;;;;;9.54;59.00;99624.72;6134632;28;96887;-72
2022/10/10 04:49:04;;;;;;;;;23.40;22.00;;;;;9.55;58.84;99624.53;6144532;27;96283;-72
2022/10/10 04:52:09;;;;;;;;;23.40;20.40;;;;;9.53;58.75;99621.19;6133379;28;96964;-72
2022/10/10 04:55:12;;;;;;;;;23.25;20.25;;;;;9.50;58.45;99623.44;6202229;27;96621;-71
2022/10/10 04:58:16;;;;;;;;;21.00;20.50;;;;;9.48;58.43;99614.75;6199412;27;98382;-72
2022/10/10 05:01:20;;;;;;;;;23.80;22.00;;;;;9.40;58.23;99623.78;6201653;27;98557;-69
2022/10/10 05:04:23;;;;;;;;;21.00;19.00;;;;;9.47;58.54;99615.78;6145854;27;96546;-72
2022/10/10 05:07:28;;;;;;;;;22.40;20.80;;;;;9.45;58.58;99621.34;6200766;27;96257;-71
2022/10/10 05:10:35;;;;;;;;;23.00;20.80;;;;;9.44;58.64;99619.69;6132047;28;96705;-71
2022/10/10 05:13:39;;;;;;;;;21.20;18.80;;;;;9.48;58.63;99615.56;6134767;28;96446;-72
2022/10/10 05:16:42;;;;;;;;;22.60;20.60;;;;;9.55;58.50;99613.75;6202037;28;96713;-72
2022/10/10 05:19:46;;;;;;;;;21.75;19.75;;;;;9.56;58.60;99610.03;6185583;28;96905;-72
2022/10/10 05:22:51;;;;;;;;;21.60;21.00;;;;;9.68;58.41;99609.47;6201562;27;96261;-72
2022/10/10 05:25:54;;;;;;;;;24.00;21.00;;;;;9.75;58.38;99619.25;6136249;28;96479;-71
2022/10/10 05:28:58;;;;;;;;;23.00;21.00;;;;;9.78;58.16;99621.53;6201251;28;96266;-72
2022/10/10 05:32:01;;;;;;;;;22.20;19.80;;;;;9.98;59.54;99624.34;6188828;27;98378;-71
2022/10/10 05:35:12;;;;;;;;;20.00;19.00;;;;;10.12;57.76;99617.97;6199629;28;96572;-72
2022/10/10 05:38:16;;;;;;;;;23.00;22.40;;;;;10.14;57.78;99625.88;6179880;28;97312;-72
2022/10/10 05:41:20;;;;;;;;;20.00;18.00;;;;;10.17;57.58;99631.72;6135558;28;96625;-73
2022/10/10 05:44:23;;;;;;;;;23.00;21.00;;;;;10.12;57.38;99634.16;6201101;28;97305;-72
2022/10/10 05:47:26;;;;;;;;;23.60;21.00;;;;;10.19;57.38;99626.97;6135368;28;95920;-70
2022/10/10 05:50:34;;;;;;;;;21.20;18.80;;;;;10.29;57.27;99643.59;6134063;28;96347;-72
2022/10/10 05:53:39;;;;;;;;;23.40;19.00;;;;;10.52;57.91;99639.72;6196359;27;96824;-72
2022/10/10 05:56:42;;;;;;;;;22.60;21.00;;;;;10.69;56.59;99649.13;6201037;28;97370;-72
2022/10/10 05:59:46;;;;;;;;;19.80;18.40;;;;;10.88;55.97;99637.53;6134897;28;96525;-72
2022/10/10 06:02:49;;;;;;;;;22.40;20.40;;;;;10.90;55.91;99631.94;6134482;28;96729;-70
2022/10/10 06:05:54;;;;;;;;;23.20;21.60;;;;;11.20;55.70;99636.72;6134882;28;96592;-70
2022/10/10 06:08:59;;;;;;;;;23.00;22.00;;;;;11.64;54.97;99632.53;6201042;28;96679;-71
2022/10/10 06:12:02;;;;;;;;;22.00;20.60;;;;;11.85;54.14;99636.88;6201155;28;96267;-70
2022/10/10 06:15:06;;;;;;;;;20.50;20.50;;;;;12.27;53.45;99628.22;6200157;28;98492;-72
2022/10/10 06:18:10;;;;;;;;;21.40;20.00;;;;;12.92;51.97;99635.16;6195249;27;98351;-72
2022/10/10 06:21:13;;;;;;;;;18.75;18.00;;;;;13.54;50.46;99636.13;6140455;27;96326;-72
2022/10/10 06:24:18;;;;;;;;;21.00;18.25;;;;;14.36;48.74;99629.44;6225773;27;98594;-72
2022/10/10 06:27:21;;;;;;;;;20.00;19.00;;;;;15.43;46.37;99633.91;6133202;28;96471;-71
2022/10/10 06:30:24;;;;;;;;;20.00;18.00;;;;;16.66;43.17;99635.56;6200033;28;99066;-71
2022/10/10 06:33:28;;;;;;;;;26.00;25.00;;;;;17.45;40.26;99639.09;6134415;28;96343;-72
2022/10/10 06:36:32;;;;;;;;;26.17;24.83;;;;;18.32;39.07;99626.50;6133621;28;96553;-72
2022/10/10 06:39:37;;;;;;;;;24.20;23.20;;;;;18.91;37.90;99634.84;6133130;28;96787;-73
2022/10/10 06:42:40;;;;;;;;;19.00;19.00;;;;;19.72;36.75;99632.84;6132149;28;96356;-70
2022/10/10 06:45:49;;;;;;;;;29.00;26.00;;;;;21.13;34.75;99630.72;6181309;28;97327;-72
2022/10/10 06:48:53;;;;;;;;;24.60;23.60;;;;;23.58;30.64;99632.34;6133177;28;96694;-71
2022/10/10 06:51:56;;;;;;;;;21.40;21.00;;;;;26.40;26.89;99626.63;6132790;28;96425;-72
2022/10/10 06:55:01;;;;;;;;;21.60;19.60;;;;;28.84;24.14;99627.69;6132769;28;96953;-73
2022/10/10 06:58:04;;;;;;;;;20.00;19.00;;;;;30.71;21.38;99628.78;6201053;28;96151;-74
2022/10/10 07:01:07;;;;;;;;;19.20;18.20;;;;;32.35;20.26;99626.16;6134634;28;96378;-73
2022/10/10 07:04:12;;;;;;;;;17.80;17.20;;;;;33.55;18.29;99625.47;6205848;28;96454;-73
2022/10/10 07:07:15;;;;;;;;;18.33;17.00;;;;;34.75;17.47;99626.66;6205336;28;96830;-73
2022/10/10 07:10:20;;;;;;;;;18.40;17.00;;;;;35.65;16.05;99621.81;6138691;28;96288;-73
2022/10/10 07:13:24;;;;;;;;;17.00;15.80;;;;;36.48;15.18;99629.38;6127454;27;96287;-74
2022/10/10 07:16:27;;;;;;;;;17.00;16.00;;;;;37.38;14.71;99625.88;6187731;28;96491;-74
2022/10/10 07:19:30;;;;;;;;;16.25;15.75;;;;;38.13;14.15;99622.72;6137928;28;96726;-73
2022/10/10 07:22:34;;;;;;;;;15.40;14.40;;;;;38.56;14.16;99618.28;6204365;27;96937;-72
2022/10/10 07:25:40;;;;;;;;;14.80;13.80;;;;;38.77;13.04;99618.41;6138088;28;96334;-74
2022/10/10 07:28:43;;;;;;;;;15.60;13.60;;;;;38.99;12.86;99610.94;6208771;27;96236;-73
2022/10/10 07:31:46;;;;;;;;;12.60;12.00;;;;;39.52;13.05;99613.19;6205699;28;96470;-73
2022/10/10 07:34:50;;;;;;;;;14.60;12.00;;;;;39.65;12.63;99612.41;6221839;27;96801;-74
2022/10/10 07:37:55;;;;;;;;;14.50;13.00;;;;;40.02;12.41;99606.47;6221325;27;98284;-74
2022/10/10 07:41:00;;;;;;;;;15.00;13.00;;;;;40.23;12.22;99606.50;6137885;28;96305;-73
2022/10/10 07:44:04;;;;;;;;;12.20;12.20;;;;;40.47;11.99;99606.88;6205055;28;96880;-74
2022/10/10 07:47:07;;;;;;;;;12.00;11.00;;;;;40.67;11.83;99605.28;6137461;28;96343;-74
2022/10/10 07:50:11;;;;;;;;;12.50;11.50;;;;;41.09;11.65;99602.38;6137664;28;96476;-72
2022/10/10 07:53:14;;;;;;;;;15.20;14.00;;;;;41.31;11.49;99594.59;6137619;28;96656;-73
2022/10/10 07:56:19;;;;;;;;;15.00;14.00;;;;;41.69;11.25;99604.13;6204128;28;98529;-73
2022/10/10 07:59:23;;;;;;;;;15.00;13.40;;;;;41.73;11.43;99598.47;6137474;28;96418;-73
2022/10/10 08:02:27;;;;;;;;;13.00;12.00;;;;;41.66;11.18;99599.28;6204576;28;96348;-73
2022/10/10 08:05:30;;;;;;;;;13.00;13.00;;;;;41.64;11.06;99584.72;6137066;28;96423;-73
2022/10/10 08:08:34;;;;;;;;;12.50;12.00;;;;;42.00;11.55;99584.53;6137404;28;96307;-73
2022/10/10 08:11:48;;;;;;;;;12.00;11.00;;;;;41.89;11.28;99590.25;6204246;28;96597;-72
2022/10/10 08:14:51;;;;;;;;;14.75;14.00;;;;;42.12;11.21;99584.03;6137311;28;96234;-73
2022/10/10 08:17:55;;;;;;;;;14.00;13.00;;;;;42.35;11.17;99590.72;6204155;28;97419;-70
2022/10/10 08:20:59;;;;;;;;;12.00;11.75;;;;;42.64;10.83;99588.41;6136756;28;96538;-73
2022/10/10 08:24:03;;;;;;;;;11.50;11.00;;;;;42.90;10.51;99581.28;6136758;28;96409;-73
2022/10/10 08:27:07;;;;;;;;;12.40;10.60;;;;;42.73;10.25;99583.09;6136791;27;96590;-73
2022/10/10 08:30:11;;;;;;;;;12.00;11.00;;;;;42.85;10.82;99570.41;6136530;28;96367;-74
2022/10/10 08:33:15;;;;;;;;;12.00;10.80;;;;;43.01;10.38;99566.97;6203411;28;96693;-73
2022/10/10 08:36:20;;;;;;;;;10.00;10.00;;;;;43.08;10.70;99569.75;6202987;28;96302;-73
2022/10/10 08:39:24;;;;;;;;;11.00;10.00;;;;;43.04;10.12;99560.44;6136340;28;96824;-73
2022/10/10 08:42:34;;;;;;;;;9.00;9.00;;;;;43.16;10.38;99557.88;6203566;28;96271;-73
2022/10/10 08:45:39;;;;;;;;;10.00;10.00;;;;;43.01;10.17;99513.84;6137407;28;97064;-73
2022/10/10 08:48:45;;;;;;;;;10.00;10.00;;;;;43.00;10.80;99537.81;6203715;28;98903;-74
2022/10/10 08:51:56;;;;;;;;;10.80;10.20;;;;;42.82;10.95;99547.72;6204018;27;98494;-73
2022/10/10 08:55:02;;;;;;;;;9.60;8.00;;;;;42.94;11.34;99524.50;6137994;28;96297;-73
2022/10/10 08:58:16;;;;;;;;;10.60;10.00;;;;;42.94;10.54;99530.16;6203924;28;96341;-72
2022/10/10 09:01:23;;;;;;;;;9.20;9.00;;;;;43.08;11.07;99530.81;6204377;28;96900;-74
2022/10/10 09:04:32;;;;;;;;;9.00;9.00;;;;;43.43;10.77;99523.84;6204494;28;96327;-71
2022/10/10 09:07:50;;;;;;;;;10.00;8.00;;;;;43.41;10.82;99516.97;6136111;28;96871;-73
2022/10/10 09:10:58;;;;;;;;;9.60;8.00;;;;;43.72;10.45;99520.59;6136751;28;97620;-73
2022/10/10 09:14:14;;;;;;;;;9.00;9.00;;;;;43.81;10.41;99518.00;6136785;28;96230;-72
2022/10/10 09:17:25;;;;;;;;;10.00;9.00;;;;;43.85;10.98;99513.06;6202599;28;96931;-74
2022/10/10 09:20:43;;;;;;;;;9.60;8.60;;;;;43.51;10.67;99493.34;6202961;28;96667;-71
2022/10/10 09:23:54;;;;;;;;;7.00;7.00;;;;;43.25;10.85;99502.63;6185210;28;96949;-72
2022/10/10 09:27:03;;;;;;;;;8.00;7.00;;;;;42.43;10.90;99488.59;6136361;28;96420;-72
2022/10/10 09:30:17;;;;;;;;;7.20;7.00;;;;;41.95;11.11;99489.47;6202176;28;96693;-73
2022/10/10 09:33:28;;;;;;;;;7.60;7.00;;;;;42.16;10.89;99491.31;6202716;28;96794;-73
2022/10/10 09:36:36;;;;;;;;;7.00;7.00;;;;;41.59;11.13;99491.75;6130675;28;96348;-72
2022/10/10 09:39:44;;;;;;;;;6.60;6.00;;;;;41.62;11.09;99496.59;6252279;27;97111;-74
2022/10/10 09:42:48;;;;;;;;;7.00;7.00;;;;;40.87;11.66;99490.50;6236520;28;97120;-73
2022/10/10 09:45:55;;;;;;;;;7.50;7.00;;;;;40.92;11.42;99489.28;6238115;27;96846;-74
2022/10/10 09:48:58;;;;;;;;;6.00;5.80;;;;;40.44;12.05;99477.72;6237734;27;96419;-72
2022/10/10 09:52:16;;;;;;;;;8.00;7.60;;;;;40.45;12.26;99476.50;6228817;28;96203;-71
2022/10/10 09:55:25;;;;;;;;;5.25;5.00;;;;;40.43;11.99;99471.25;6237715;28;96387;-73
2022/10/10 09:58:34;;;;;;;;;6.00;5.00;;;;;40.75;12.17;99471.19;6237706;27;96923;-73
2022/10/10 10:01:39;;;;;;;;;5.50;5.50;;;;;40.82;11.70;99471.13;6235769;27;96219;-73
2022/10/10 10:04:43;;;;;;;;;7.00;6.00;;;;;40.78;12.22;99461.06;6246907;27;97300;-72
2022/10/10 10:07:48;;;;;;;;;6.00;5.00;;;;;40.66;11.00;99456.69;6235045;28;96421;-72
2022/10/10 10:10:52;;;;;;;;;6.00;6.00;;;;;40.77;11.90;99451.75;6234855;28;96347;-73
2022/10/10 10:13:58;;;;;;;;;7.00;6.50;;;;;40.78;11.55;99436.41;6234915;28;96377;-73
2022/10/10 10:17:09;;;;;;;;;5.00;4.00;;;;;40.94;11.37;99455.75;6233708;28;96700;-74
2022/10/10 10:20:32;;;;;;;;;5.00;4.00;;;;;40.18;11.01;99450.69;6234717;27;97096;-74
2022/10/10 10:23:40;;;;;;;;;4.80;4.40;;;;;40.13;12.04;99440.63;6231426;28;96967;-72
2022/10/10 10:26:46;;;;;;;;;5.00;5.00;;;;;40.52;11.76;99436.91;6233376;28;96669;-73
2022/10/10 10:29:51;;;;;;;;;5.40;5.00;;;;;40.74;11.18;99437.66;6234980;27;97282;-73
2022/10/10 10:33:08;;;;;;;;;4.50;4.00;;;;;39.89;11.44;99438.63;6233439;28;96858;-70
2022/10/10 10:36:26;;;;;;;;;5.20;5.20;;;;;40.04;12.27;99436.59;6231063;27;98622;-72
2022/10/10 10:39:43;;;;;;;;;5.00;5.00;;;;;40.31;12.08;99431.34;6238147;28;96507;-74
2022/10/10 10:43:25;;;;;;;;;5.00;3.80;;;;;40.51;11.70;99432.47;6256381;27;97487;-72
2022/10/10 10:46:40;;;;;;;;;5.00;5.00;;;;;40.57;11.84;99419.50;6239523;28;96261;-73
2022/10/10 10:49:55;;;;;;;;;5.00;4.00;;;;;40.02;11.50;99411.63;6236637;27;98452;-72
2022/10/10 10:53:08;;;;;;;;;5.00;5.00;;;;;40.17;12.03;99401.88;6252149;27;96967;-71
2022/10/10 10:56:24;;;;;;;;;8.00;7.00;;;;;39.97;11.08;99397.09;6238066;27;96402;-68
2022/10/10 10:59:41;;;;;;;;;3.60;3.60;;;;;39.78;11.24;99387.84;6238018;28;96740;-72
2022/10/10 11:03:15;;;;;;;;;4.00;4.00;;;;;39.76;12.28;99384.63;6237430;28;96322;-73
2022/10/10 11:06:58;;;;;;;;;4.00;4.00;;;;;40.22;12.23;99387.34;6237466;28;96833;-74
2022/10/10 11:10:30;;;;;;;;;5.00;5.00;;;;;39.45;11.84;99376.13;6252842;27;97188;-73
2022/10/10 11:13:42;;;;;;;;;4.00;4.00;;;;;39.83;12.76;99375.34;6236925;28;96591;-72
2022/10/10 11:16:50;;;;;;;;;5.00;5.00;;;;;40.23;11.85;99376.88;6253296;27;96825;-74
2022/10/10 11:20:01;;;;;;;;;3.75;3.75;;;;;40.32;11.37;99387.75;6252797;27;97104;-73
2022/10/10 11:23:12;;;;;;;;;4.00;4.00;;;;;40.10;11.88;99365.19;6238585;27;96387;-72
2022/10/10 11:26:21;;;;;;;;;5.00;5.00;;;;;39.44;12.20;99361.22;6239189;27;97572;-74
2022/10/10 11:29:31;;;;;;;;;4.20;4.20;;;;;38.84;12.96;99349.84;6252084;27;96260;-72
2022/10/10 11:32:40;;;;;;;;;5.00;5.00;;;;;39.35;13.12;99358.00;6238757;28;96653;-73
2022/10/10 11:35:50;;;;;;;;;5.00;5.00;;;;;40.03;12.55;99350.25;6218604;28;99662;-73
2022/10/10 11:38:59;;;;;;;;;5.00;4.80;;;;;40.43;11.70;99349.75;6191404;28;96389;-73
2022/10/10 11:42:11;;;;;;;;;4.00;4.00;;;;;40.53;11.92;99356.56;6136145;27;97122;-73
2022/10/10 11:45:19;;;;;;;;;6.00;5.00;;;;;40.57;12.30;99337.53;6202350;28;98929;-73
2022/10/10 11:48:32;;;;;;;;;4.00;4.00;;;;;40.72;12.16;99341.13;6135081;27;96555;-72
2022/10/10 11:51:44;;;;;;;;;4.00;4.00;;;;;40.30;12.25;99340.13;6218989;27;96206;-74
2022/10/10 11:54:55;;;;;;;;;4.50;4.00;;;;;40.19;11.83;99330.88;6201779;28;98111;-74
2022/10/10 11:58:23;;;;;;;;;4.00;4.00;;;;;39.99;11.99;99315.59;6135234;28;96466;-73
2022/10/10 12:01:30;;;;;;;;;5.00;4.00;;;;;39.76;12.35;99322.53;6136131;27;96435;-73
2022/10/10 12:04:37;;;;;;;;;5.00;4.75;;;;;39.46;12.79;99313.66;6203121;28;98519;-73
2022/10/10 12:07:45;;;;;;;;;6.00;5.25;;;;;38.71;12.46;99307.13;6204135;28;97939;-73
2022/10/10 12:10:56;;;;;;;;;5.00;5.00;;;;;37.43;14.08;99302.88;6204103;28;97010;-73
2022/10/10 12:14:02;;;;;;;;;6.00;5.00;;;;;36.38;14.54;99309.06;6136761;28;97205;-72
2022/10/10 12:17:16;;;;;;;;;5.40;4.60;;;;;35.28;15.54;99298.28;6126626;28;96201;-73
2022/10/10 12:20:34;;;;;;;;;5.40;5.40;;;;;34.60;16.07;99301.84;6137576;27;96668;-72
2022/10/10 12:23:39;;;;;;;;;6.00;5.00;;;;;33.90;16.34;99294.41;6134875;28;96308;-74
2022/10/10 12:27:28;;;;;;;;;6.00;5.00;;;;;33.19;17.49;99289.13;6134919;28;96265;-73
2022/10/10 12:30:33;;;;;;;;;8.00;6.20;;;;;32.79;17.49;99280.09;6134426;28;96826;-72
2022/10/10 12:34:03;;;;;;;;;7.00;6.80;;;;;32.61;18.20;99271.22;6202229;28;98411;-73
2022/10/10 12:37:21;;;;;;;;;6.00;5.00;;;;;32.25;18.54;99281.41;6135966;28;96477;-72
2022/10/10 12:40:24;;;;;;;;;6.40;6.00;;;;;31.91;18.53;99267.25;6135367;28;96309;-74
2022/10/10 12:43:38;;;;;;;;;5.60;5.60;;;;;31.84;19.44;99267.84;6203750;28;96861;-74
2022/10/10 12:46:44;;;;;;;;;6.00;6.00;;;;;31.82;18.68;99261.78;6135751;28;96464;-74
2022/10/10 12:49:49;;;;;;;;;6.00;6.00;;;;;31.82;19.52;99262.59;6133742;28;96223;-73
2022/10/10 12:52:56;;;;;;;;;6.40;6.40;;;;;31.13;18.91;99262.81;6158497;27;96995;-73
2022/10/10 12:56:02;;;;;;;;;6.00;6.00;;;;;30.67;19.11;99254.88;6139096;27;96335;-71
2022/10/10 12:59:07;;;;;;;;;7.00;7.00;;;;;30.46;19.80;99246.59;6212413;27;96843;-73
2022/10/10 13:02:19;;;;;;;;;8.00;7.00;;;;;30.53;19.63;99250.47;6202950;28;96658;-73
2022/10/10 13:05:27;;;;;;;;;6.00;6.00;;;;;30.42;20.11;99229.75;6202813;27;96733;-72
2022/10/10 13:08:32;;;;;;;;;6.00;6.00;;;;;30.51;20.14;99246.38;6187919;28;98491;-73
2022/10/10 13:11:51;;;;;;;;;7.00;6.00;;;;;30.44;20.26;99238.59;6133281;28;97009;-73
2022/10/10 13:14:54;;;;;;;;;7.60;6.00;;;;;30.23;20.08;99239.78;6149432;27;97237;-73
2022/10/10 13:17:59;;;;;;;;;7.60;6.60;;;;;29.98;19.99;99230.53;6201820;27;96713;-73
2022/10/10 13:21:04;;;;;;;;;6.00;6.00;;;;;29.71;21.49;99229.13;6200311;28;96767;-71
2022/10/10 13:24:16;;;;;;;;;7.75;6.75;;;;;29.83;21.04;99229.19;6135833;28;97347;-73
2022/10/10 13:27:22;;;;;;;;;8.00;8.00;;;;;29.75;20.51;99221.75;6201362;28;96481;-69
2022/10/10 13:30:27;;;;;;;;;7.33;6.00;;;;;29.37;21.21;99219.06;6135603;28;96399;-73
2022/10/10 13:33:33;;;;;;;;;7.40;6.40;;;;;29.15;21.67;99220.19;6133607;28;96366;-72
2022/10/10 13:36:37;;;;;;;;;6.00;6.00;;;;;28.91;22.83;99202.53;6198779;27;98675;-73
2022/10/10 13:39:40;;;;;;;;;5.80;5.00;;;;;28.96;22.22;99207.91;6233168;28;99311;-73
2022/10/10 13:42:45;;;;;;;;;6.40;6.00;;;;;28.98;21.77;99211.94;6234838;28;96697;-71
2022/10/10 13:45:55;;;;;;;;;7.00;7.00;;;;;28.94;22.18;99208.22;6239464;27;98312;-70
2022/10/10 13:49:00;;;;;;;;;6.00;5.00;;;;;28.66;22.41;99193.97;6234515;28;96786;-72
2022/10/10 13:52:19;;;;;;;;;6.60;5.60;;;;;28.42;22.30;99204.84;6234639;28;96497;-73
2022/10/10 13:55:25;;;;;;;;;5.00;5.00;;;;;28.18;23.02;99196.28;6235118;28;96358;-73
2022/10/10 13:58:31;;;;;;;;;6.00;6.00;;;;;27.92;23.15;99194.34;6235270;28;98700;-74
2022/10/10 14:01:38;;;;;;;;;7.00;6.00;;;;;28.05;22.99;99188.94;6236332;28;98716;-72
2022/10/10 14:04:48;;;;;;;;;5.00;5.00;;;;;28.11;23.40;99185.69;6217608;28;97342;-73
2022/10/10 14:07:52;;;;;;;;;5.40;4.40;;;;;28.03;23.59;99186.50;6219438;28;98403;-72
2022/10/10 14:10:59;;;;;;;;;8.20;6.20;;;;;27.98;23.80;99178.34;6235453;28;96654;-74
2022/10/10 14:14:08;;;;;;;;;7.00;6.20;;;;;27.90;22.96;99177.25;6253129;27;96483;-72
2022/10/10 14:17:12;;;;;;;;;7.60;7.00;;;;;27.55;23.59;99170.91;6235536;27;96247;-74
2022/10/10 14:20:17;;;;;;;;;7.00;7.00;;;;;27.63;24.53;99165.69;6234343;28;96659;-73
2022/10/10 14:23:20;;;;;;;;;7.00;6.00;;;;;27.54;23.89;99169.28;6234473;28;96218;-72
2022/10/10 14:26:24;;;;;;;;;6.00;6.00;;;;;27.38;24.26;99159.78;6236789;28;96255;-72
2022/10/10 14:29:27;;;;;;;;;6.80;6.00;;;;;27.11;24.44;99155.41;6236439;27;96646;-70
2022/10/10 14:32:30;;;;;;;;;6.00;6.00;;;;;27.09;24.70;99149.38;6235335;28;96783;-73